createdAt,value
2022-11-08T00:00:08.798Z,7.90
2022-11-08T00:01:29.249Z,8.00
2022-11-08T00:02:31.132Z,8.00
2022-11-08T00:03:32.691Z,7.90
2022-11-08T00:04:34.918Z,7.90
2022-11-08T00:05:55.136Z,7.90
2022-11-08T00:07:15.321Z,7.90
2022-11-08T00:08:35.416Z,7.90
2022-11-08T00:09:56.090Z,7.90
2022-11-08T00:11:21.393Z,7.80
2022-11-08T00:12:41.534Z,7.90
2022-11-08T00:14:01.288Z,7.90
2022-11-08T00:15:04.597Z,7.80
2022-11-08T00:16:06.261Z,7.90
2022-11-08T00:17:07.864Z,7.90
2022-11-08T00:18:09.547Z,7.90
2022-11-08T00:19:11.387Z,7.90
2022-11-08T00:20:13.031Z,7.90
2022-11-08T00:21:14.445Z,7.90
2022-11-08T00:22:16.273Z,7.90
2022-11-08T00:23:17.634Z,7.90
2022-11-08T00:24:19.322Z,7.90
2022-11-08T00:25:20.686Z,7.90
2022-11-08T00:26:22.355Z,7.90
2022-11-08T00:27:25.029Z,7.80
2022-11-08T00:28:26.683Z,7.80
2022-11-08T00:29:28.109Z,7.80
2022-11-08T00:30:29.946Z,7.90
2022-11-08T00:31:31.330Z,7.90
2022-11-08T00:32:32.880Z,7.90
2022-11-08T00:33:34.342Z,7.80
2022-11-08T00:34:36.234Z,7.80
2022-11-08T00:35:37.592Z,7.80
2022-11-08T00:36:38.985Z,7.80
2022-11-08T00:37:40.362Z,7.90
2022-11-08T00:38:43.655Z,7.90
2022-11-08T00:39:45.242Z,7.90
2022-11-08T00:40:46.631Z,7.90
2022-11-08T00:41:48.053Z,8.00
2022-11-08T00:42:49.439Z,8.00
2022-11-08T00:43:50.881Z,7.90
2022-11-08T00:44:52.252Z,7.90
2022-11-08T00:45:54.006Z,7.90
2022-11-08T00:46:55.400Z,7.80
2022-11-08T00:47:57.094Z,7.80
2022-11-08T00:48:58.499Z,7.80
2022-11-08T00:49:59.879Z,7.80
2022-11-08T00:51:09.921Z,7.80
2022-11-08T00:52:11.365Z,7.90
2022-11-08T00:53:13.108Z,7.90
2022-11-08T00:54:17.243Z,7.80
2022-11-08T00:55:18.633Z,7.80
2022-11-08T00:56:19.997Z,7.80
2022-11-08T00:57:30.995Z,7.90
2022-11-08T00:58:43.921Z,7.80
2022-11-08T00:59:45.486Z,7.80
2022-11-08T01:00:46.926Z,7.80
2022-11-08T01:01:48.530Z,7.80
2022-11-08T01:03:10.143Z,7.80
2022-11-08T01:04:14.121Z,7.80
2022-11-08T01:05:15.559Z,7.80
2022-11-08T01:06:19.077Z,7.80
2022-11-08T01:07:20.508Z,7.80
2022-11-08T01:08:23.570Z,7.80
2022-11-08T01:09:24.972Z,7.80
2022-11-08T01:10:26.363Z,7.80
2022-11-08T01:11:28.180Z,7.80
2022-11-08T01:12:29.583Z,7.80
2022-11-08T01:13:31.334Z,7.80
2022-11-08T01:14:32.750Z,7.80
2022-11-08T01:15:36.343Z,7.70
2022-11-08T01:16:37.825Z,7.70
2022-11-08T01:17:39.217Z,7.70
2022-11-08T01:18:41.106Z,7.70
2022-11-08T01:19:42.506Z,7.70
2022-11-08T01:20:45.253Z,7.70
2022-11-08T01:21:47.200Z,7.70
2022-11-08T01:22:48.618Z,7.70
2022-11-08T01:23:50.486Z,7.70
2022-11-08T01:24:52.158Z,7.70
2022-11-08T01:25:53.544Z,7.70
2022-11-08T01:26:54.944Z,7.70
2022-11-08T01:27:56.677Z,7.80
2022-11-08T01:28:58.983Z,7.90
2022-11-08T01:30:02.775Z,7.80
2022-11-08T01:31:10.951Z,7.80
2022-11-08T01:32:12.362Z,7.80
2022-11-08T01:33:15.037Z,7.80
2022-11-08T01:34:16.882Z,7.80
2022-11-08T01:35:18.496Z,7.80
2022-11-08T01:36:24.731Z,7.80
2022-11-08T01:37:26.155Z,7.70
2022-11-08T01:38:27.590Z,7.70
2022-11-08T01:39:32.897Z,7.70
2022-11-08T01:40:35.013Z,7.70
2022-11-08T01:41:36.416Z,7.60
2022-11-08T01:42:37.849Z,7.70
2022-11-08T01:43:44.374Z,7.70
2022-11-08T01:45:00.308Z,7.70
2022-11-08T01:46:20.194Z,7.60
2022-11-08T01:47:21.612Z,7.60
2022-11-08T01:48:25.139Z,7.60
2022-11-08T01:49:37.724Z,7.60
2022-11-08T01:50:39.494Z,7.70
2022-11-08T01:51:48.011Z,7.60
2022-11-08T01:52:53.996Z,7.60
2022-11-08T01:53:57.280Z,7.60
2022-11-08T01:55:13.606Z,7.60
2022-11-08T01:56:16.010Z,7.60
2022-11-08T01:57:21.424Z,7.60
2022-11-08T01:58:28.712Z,7.60
2022-11-08T01:59:31.786Z,7.60
2022-11-08T02:00:35.841Z,7.60
2022-11-08T02:01:37.434Z,7.60
2022-11-08T02:02:41.994Z,7.60
2022-11-08T02:03:43.938Z,7.60
2022-11-08T02:04:45.590Z,7.60
2022-11-08T02:05:47.879Z,7.70
2022-11-08T02:06:50.551Z,7.60
2022-11-08T02:08:17.974Z,7.60
2022-11-08T02:09:19.876Z,7.60
2022-11-08T02:10:24.806Z,7.60
2022-11-08T02:11:27.262Z,7.60
2022-11-08T02:12:29.235Z,7.60
2022-11-08T02:13:32.603Z,7.70
2022-11-08T02:14:35.457Z,7.60
2022-11-08T02:15:37.345Z,7.60
2022-11-08T02:16:38.836Z,7.60
2022-11-08T02:17:41.030Z,7.60
2022-11-08T02:18:45.414Z,7.50
2022-11-08T02:19:49.569Z,7.50
2022-11-08T02:21:15.050Z,7.60
2022-11-08T02:22:38.264Z,7.60
2022-11-08T02:23:48.308Z,7.60
2022-11-08T02:24:49.983Z,7.60
2022-11-08T02:25:51.734Z,7.60
2022-11-08T02:26:56.010Z,7.60
2022-11-08T02:27:57.415Z,7.70
2022-11-08T02:28:59.847Z,7.70
2022-11-08T02:30:04.541Z,7.70
2022-11-08T02:31:09.529Z,7.60
2022-11-08T02:32:12.537Z,7.60
2022-11-08T02:33:19.568Z,7.60
2022-11-08T02:34:40.669Z,7.60
2022-11-08T02:35:42.618Z,7.60
2022-11-08T02:36:47.970Z,7.50
2022-11-08T02:37:49.419Z,7.60
2022-11-08T02:38:55.249Z,7.50
2022-11-08T02:39:56.751Z,7.50
2022-11-08T02:40:59.098Z,7.50
2022-11-08T02:42:01.959Z,7.50
2022-11-08T02:43:03.609Z,7.50
2022-11-08T02:44:05.142Z,7.50
2022-11-08T02:45:07.641Z,7.50
2022-11-08T02:46:09.586Z,7.50
2022-11-08T02:47:11.246Z,7.50
2022-11-08T02:48:13.091Z,7.50
2022-11-08T02:49:14.552Z,7.40
2022-11-08T02:50:16.042Z,7.40
2022-11-08T02:51:17.476Z,7.40
2022-11-08T02:52:18.974Z,7.40
2022-11-08T02:53:20.560Z,7.40
2022-11-08T02:54:22.146Z,7.40
2022-11-08T02:55:23.609Z,7.40
2022-11-08T02:56:25.113Z,7.40
2022-11-08T02:57:26.526Z,7.50
2022-11-08T02:58:28.093Z,7.40
2022-11-08T02:59:29.543Z,7.40
2022-11-08T03:00:31.289Z,7.50
2022-11-08T03:01:32.919Z,7.40
2022-11-08T03:02:34.430Z,7.40
2022-11-08T03:03:36.076Z,7.40
2022-11-08T03:04:37.497Z,7.40
2022-11-08T03:05:39.360Z,7.40
2022-11-08T03:06:41.432Z,7.50
2022-11-08T03:07:42.806Z,7.40
2022-11-08T03:08:44.234Z,7.40
2022-11-08T03:09:45.582Z,7.40
2022-11-08T03:10:47.289Z,7.40
2022-11-08T03:11:48.724Z,7.40
2022-11-08T03:13:00.831Z,7.40
2022-11-08T03:14:02.295Z,7.40
2022-11-08T03:15:05.816Z,7.40
2022-11-08T03:16:07.483Z,7.30
2022-11-08T03:17:09.374Z,7.30
2022-11-08T03:18:11.080Z,7.20
2022-11-08T03:19:12.806Z,7.20
2022-11-08T03:20:14.579Z,7.30
2022-11-08T03:21:16.015Z,7.30
2022-11-08T03:22:17.735Z,7.20
2022-11-08T03:23:20.640Z,7.20
2022-11-08T03:24:22.116Z,7.30
2022-11-08T03:25:23.567Z,7.30
2022-11-08T03:26:24.982Z,7.30
2022-11-08T03:27:27.326Z,7.20
2022-11-08T03:28:29.576Z,7.10
2022-11-08T03:29:31.258Z,7.10
2022-11-08T03:30:33.729Z,7.10
2022-11-08T03:31:35.193Z,7.10
2022-11-08T03:32:36.613Z,7.10
2022-11-08T03:33:38.152Z,7.10
2022-11-08T03:34:39.532Z,7.10
2022-11-08T03:35:41.048Z,7.10
2022-11-08T03:36:42.519Z,7.10
2022-11-08T03:37:53.750Z,7.10
2022-11-08T03:38:55.282Z,7.10
2022-11-08T03:39:56.744Z,7.10
2022-11-08T03:40:58.180Z,7.00
2022-11-08T03:42:03.370Z,7.00
2022-11-08T03:43:04.839Z,7.00
2022-11-08T03:44:06.366Z,7.10
2022-11-08T03:45:08.433Z,7.10
2022-11-08T03:46:10.157Z,7.10
2022-11-08T03:47:11.637Z,7.10
2022-11-08T03:48:13.194Z,7.10
2022-11-08T03:49:14.565Z,7.10
2022-11-08T03:50:16.876Z,7.20
2022-11-08T03:51:18.303Z,7.10
2022-11-08T03:52:19.716Z,7.10
2022-11-08T03:53:21.140Z,7.10
2022-11-08T03:54:22.554Z,7.00
2022-11-08T03:55:27.096Z,7.00
2022-11-08T03:56:28.559Z,7.00
2022-11-08T03:57:29.943Z,7.00
2022-11-08T03:58:31.321Z,7.10
2022-11-08T03:59:32.733Z,7.00
2022-11-08T04:00:34.116Z,7.00
2022-11-08T04:01:35.562Z,7.00
2022-11-08T04:02:37.411Z,7.00
2022-11-08T04:03:38.913Z,7.00
2022-11-08T04:04:40.295Z,7.00
2022-11-08T04:05:41.664Z,6.90
2022-11-08T04:06:43.433Z,7.00
2022-11-08T04:07:44.964Z,7.10
2022-11-08T04:08:47.107Z,7.10
2022-11-08T04:09:48.518Z,7.10
2022-11-08T04:10:50.109Z,7.00
2022-11-08T04:12:10.370Z,7.00
2022-11-08T04:13:30.690Z,7.00
2022-11-08T04:14:50.786Z,7.00
2022-11-08T04:15:56.020Z,7.00
2022-11-08T04:16:57.471Z,6.90
2022-11-08T04:18:18.224Z,6.90
2022-11-08T04:19:40.506Z,6.90
2022-11-08T04:21:07.702Z,6.90
2022-11-08T04:22:11.616Z,6.90
2022-11-08T04:23:13.724Z,6.80
2022-11-08T04:24:15.805Z,6.80
2022-11-08T04:25:17.290Z,6.90
2022-11-08T04:26:19.741Z,6.90
2022-11-08T04:27:21.134Z,6.90
2022-11-08T04:28:27.867Z,6.90
2022-11-08T04:29:29.767Z,6.90
2022-11-08T04:30:31.213Z,6.80
2022-11-08T04:31:33.097Z,6.80
2022-11-08T04:32:34.448Z,6.80
2022-11-08T04:33:36.266Z,6.80
2022-11-08T04:34:37.645Z,6.80
2022-11-08T04:35:39.072Z,6.80
2022-11-08T04:36:40.857Z,6.80
2022-11-08T04:37:42.376Z,6.90
2022-11-08T04:38:49.508Z,7.00
2022-11-08T04:39:50.899Z,7.00
2022-11-08T04:40:52.296Z,7.00
2022-11-08T04:41:57.754Z,6.90
2022-11-08T04:43:02.278Z,6.90
2022-11-08T04:44:03.716Z,7.00
2022-11-08T04:45:05.352Z,7.00
2022-11-08T04:46:17.143Z,7.00
2022-11-08T04:47:18.579Z,6.90
2022-11-08T04:48:20.318Z,6.90
2022-11-08T04:49:22.011Z,6.90
2022-11-08T04:50:23.493Z,6.80
2022-11-08T04:51:30.411Z,6.80
2022-11-08T04:52:31.798Z,6.80
2022-11-08T04:53:33.869Z,6.90
2022-11-08T04:54:35.293Z,6.90
2022-11-08T04:55:37.141Z,7.00
2022-11-08T04:56:38.593Z,7.00
2022-11-08T04:57:40.109Z,7.00
2022-11-08T04:58:50.598Z,7.00
2022-11-08T04:59:52.039Z,7.00
2022-11-08T05:00:53.399Z,7.00
2022-11-08T05:01:54.991Z,7.00
2022-11-08T05:02:56.635Z,6.90
2022-11-08T05:03:58.409Z,6.90
2022-11-08T05:04:59.944Z,6.90
2022-11-08T05:06:11.122Z,6.90
2022-11-08T05:07:12.814Z,6.90
2022-11-08T05:08:14.234Z,6.90
2022-11-08T05:09:15.623Z,6.80
2022-11-08T05:10:17.337Z,6.90
2022-11-08T05:11:21.127Z,6.90
2022-11-08T05:12:22.806Z,6.90
2022-11-08T05:13:24.197Z,6.90
2022-11-08T05:14:25.717Z,7.00
2022-11-08T05:15:27.160Z,7.10
2022-11-08T05:16:30.691Z,7.00
2022-11-08T05:17:32.319Z,7.10
2022-11-08T05:18:34.540Z,7.10
2022-11-08T05:19:55.101Z,7.10
2022-11-08T05:21:16.181Z,7.10
2022-11-08T05:22:36.662Z,7.10
2022-11-08T05:23:38.098Z,7.10
2022-11-08T05:24:39.470Z,7.10
2022-11-08T05:25:41.731Z,7.20
2022-11-08T05:26:45.941Z,7.20
2022-11-08T05:27:47.368Z,7.20
2022-11-08T05:28:48.953Z,7.30
2022-11-08T05:29:50.495Z,7.30
2022-11-08T05:30:53.434Z,7.30
2022-11-08T05:31:55.171Z,7.30
2022-11-08T05:32:56.624Z,7.30
2022-11-08T05:34:00.031Z,7.30
2022-11-08T05:35:01.422Z,7.30
2022-11-08T05:36:05.989Z,7.30
2022-11-08T05:37:08.161Z,7.30
2022-11-08T05:38:09.624Z,7.30
2022-11-08T05:39:11.034Z,7.30
2022-11-08T05:40:13.107Z,7.30
2022-11-08T05:41:19.485Z,7.30
2022-11-08T05:42:21.787Z,7.40
2022-11-08T05:43:23.238Z,7.40
2022-11-08T05:44:24.622Z,7.40
2022-11-08T05:45:26.047Z,7.30
2022-11-08T05:46:27.859Z,7.40
2022-11-08T05:47:29.748Z,7.40
2022-11-08T05:48:31.395Z,7.40
2022-11-08T05:49:32.759Z,7.40
2022-11-08T05:50:35.742Z,7.40
2022-11-08T05:51:39.861Z,7.40
2022-11-08T05:52:41.314Z,7.40
2022-11-08T05:53:42.896Z,7.40
2022-11-08T05:54:44.296Z,7.40
2022-11-08T05:55:46.646Z,7.40
2022-11-08T05:56:48.097Z,7.40
2022-11-08T05:57:49.987Z,7.40
2022-11-08T05:58:51.367Z,7.40
2022-11-08T05:59:52.851Z,7.40
2022-11-08T06:01:06.242Z,7.40
2022-11-08T06:02:07.928Z,7.40
2022-11-08T06:03:09.421Z,7.40
2022-11-08T06:04:10.936Z,7.40
2022-11-08T06:05:12.742Z,7.40
2022-11-08T06:06:17.963Z,7.50
2022-11-08T06:07:19.374Z,7.40
2022-11-08T06:08:20.798Z,7.50
2022-11-08T06:09:22.323Z,7.50
2022-11-08T06:10:24.256Z,7.50
2022-11-08T06:11:26.964Z,7.50
2022-11-08T06:12:29.049Z,7.50
2022-11-08T06:13:31.270Z,7.50
2022-11-08T06:14:33.198Z,7.50
2022-11-08T06:15:34.624Z,7.50
2022-11-08T06:16:36.035Z,7.30
2022-11-08T06:17:37.814Z,7.30
2022-11-08T06:18:40.336Z,7.30
2022-11-08T06:19:41.782Z,7.40
2022-11-08T06:20:43.216Z,7.30
2022-11-08T06:21:44.851Z,7.40
2022-11-08T06:22:46.358Z,7.50
2022-11-08T06:23:48.096Z,7.50
2022-11-08T06:24:49.598Z,7.50
2022-11-08T06:25:51.051Z,7.50
2022-11-08T06:26:52.871Z,7.50
2022-11-08T06:27:54.318Z,7.50
2022-11-08T06:28:55.714Z,7.50
2022-11-08T06:29:57.288Z,7.60
2022-11-08T06:31:00.074Z,7.60
2022-11-08T06:32:01.685Z,7.60
2022-11-08T06:33:03.364Z,7.70
2022-11-08T06:34:05.255Z,7.70
2022-11-08T06:35:07.143Z,7.60
2022-11-08T06:36:08.927Z,7.60
2022-11-08T06:37:10.472Z,7.60
2022-11-08T06:38:12.127Z,7.60
2022-11-08T06:39:13.899Z,7.60
2022-11-08T06:40:15.329Z,7.60
2022-11-08T06:41:20.170Z,7.70
2022-11-08T06:42:21.612Z,7.70
2022-11-08T06:43:23.420Z,7.70
2022-11-08T06:44:25.330Z,7.70
2022-11-08T06:45:27.965Z,7.70
2022-11-08T06:46:29.796Z,7.60
2022-11-08T06:47:31.505Z,7.60
2022-11-08T06:48:36.153Z,7.60
2022-11-08T06:49:37.806Z,7.60
2022-11-08T06:50:39.206Z,7.60
2022-11-08T06:51:40.728Z,7.60
2022-11-08T06:52:42.384Z,7.60
2022-11-08T06:53:43.928Z,7.60
2022-11-08T06:54:45.341Z,7.70
2022-11-08T06:55:47.094Z,7.70
2022-11-08T06:56:48.912Z,7.70
2022-11-08T06:57:50.841Z,7.70
2022-11-08T06:58:52.689Z,7.80
2022-11-08T06:59:54.095Z,7.80
2022-11-08T07:00:55.674Z,7.80
2022-11-08T07:01:57.323Z,7.80
2022-11-08T07:03:00.799Z,7.80
2022-11-08T07:04:02.993Z,7.80
2022-11-08T07:05:04.937Z,7.80
2022-11-08T07:06:06.829Z,7.90
2022-11-08T07:07:08.309Z,7.90
2022-11-08T07:08:10.011Z,7.90
2022-11-08T07:09:11.661Z,7.90
2022-11-08T07:10:13.105Z,7.80
2022-11-08T07:11:14.645Z,7.90
2022-11-08T07:12:16.078Z,7.90
2022-11-08T07:13:17.843Z,7.90
2022-11-08T07:14:19.591Z,7.90
2022-11-08T07:15:22.903Z,8.00
2022-11-08T07:16:24.384Z,8.00
2022-11-08T07:17:26.070Z,8.00
2022-11-08T07:18:28.137Z,8.10
2022-11-08T07:19:29.628Z,8.10
2022-11-08T07:20:31.336Z,8.20
2022-11-08T07:21:32.891Z,8.20
2022-11-08T07:22:34.614Z,8.20
2022-11-08T07:23:36.304Z,8.20
2022-11-08T07:24:37.692Z,8.20
2022-11-08T07:25:39.374Z,8.20
2022-11-08T07:26:40.818Z,8.30
2022-11-08T07:27:42.261Z,8.30
2022-11-08T07:28:43.676Z,8.30
2022-11-08T07:29:45.214Z,8.40
2022-11-08T07:30:48.005Z,8.40
2022-11-08T07:31:49.417Z,8.50
2022-11-08T07:32:51.148Z,8.50
2022-11-08T07:33:52.895Z,8.50
2022-11-08T07:34:54.282Z,8.60
2022-11-08T07:35:56.928Z,8.60
2022-11-08T07:36:58.447Z,8.70
2022-11-08T07:38:00.012Z,8.80
2022-11-08T07:39:06.456Z,8.80
2022-11-08T07:40:09.999Z,8.80
2022-11-08T07:41:11.757Z,8.90
2022-11-08T07:42:13.145Z,8.90
2022-11-08T07:43:16.609Z,9.00
2022-11-08T07:44:18.395Z,9.00
2022-11-08T07:45:19.864Z,9.00
2022-11-08T07:46:21.258Z,9.00
2022-11-08T07:47:22.704Z,9.10
2022-11-08T07:48:25.234Z,9.20
2022-11-08T07:49:26.619Z,9.20
2022-11-08T07:50:28.993Z,9.30
2022-11-08T07:51:30.819Z,9.30
2022-11-08T07:52:32.228Z,9.40
2022-11-08T07:53:33.612Z,9.40
2022-11-08T07:54:35.288Z,9.40
2022-11-08T07:55:40.541Z,9.50
2022-11-08T07:56:41.912Z,9.60
2022-11-08T07:57:43.559Z,9.60
2022-11-08T07:58:45.523Z,9.70
2022-11-08T07:59:47.878Z,9.60
2022-11-08T08:00:50.013Z,9.70
2022-11-08T08:01:51.559Z,9.70
2022-11-08T08:03:01.258Z,9.80
2022-11-08T08:04:02.894Z,9.90
2022-11-08T08:05:05.350Z,9.90
2022-11-08T08:06:06.879Z,9.90
2022-11-08T08:07:08.388Z,10.00
2022-11-08T08:08:11.292Z,10.00
2022-11-08T08:09:12.989Z,10.10
2022-11-08T08:10:14.413Z,10.10
2022-11-08T08:11:15.798Z,10.10
2022-11-08T08:12:17.157Z,10.20
2022-11-08T08:13:19.084Z,10.20
2022-11-08T08:14:21.135Z,10.30
2022-11-08T08:15:23.365Z,10.30
2022-11-08T08:16:25.112Z,10.30
2022-11-08T08:17:26.513Z,10.40
2022-11-08T08:18:29.416Z,10.40
2022-11-08T08:19:30.897Z,10.50
2022-11-08T08:20:33.094Z,10.50
2022-11-08T08:21:34.486Z,10.60
2022-11-08T08:22:35.905Z,10.60
2022-11-08T08:23:37.349Z,10.60
2022-11-08T08:24:38.707Z,10.60
2022-11-08T08:25:40.093Z,10.70
2022-11-08T08:26:41.499Z,10.70
2022-11-08T08:27:53.883Z,10.70
2022-11-08T08:28:55.320Z,10.80
2022-11-08T08:29:56.727Z,10.80
2022-11-08T08:30:58.172Z,10.80
2022-11-08T08:31:59.555Z,10.80
2022-11-08T08:34:28.200Z,10.80
2022-11-08T08:35:29.847Z,10.90
2022-11-08T08:36:31.343Z,10.90
2022-11-08T08:37:32.747Z,10.90
2022-11-08T08:38:37.655Z,11.00
2022-11-08T08:39:41.636Z,11.10
2022-11-08T08:40:43.356Z,11.10
2022-11-08T08:41:44.736Z,11.10
2022-11-08T08:42:46.137Z,11.20
2022-11-08T08:43:47.613Z,11.30
2022-11-08T08:44:49.096Z,11.30
2022-11-08T08:45:51.313Z,11.20
2022-11-08T08:46:53.238Z,11.30
2022-11-08T08:47:56.105Z,11.20
2022-11-08T08:48:57.601Z,11.20
2022-11-08T08:49:59.136Z,11.10
2022-11-08T08:51:00.534Z,11.10
2022-11-08T08:52:01.899Z,11.10
2022-11-08T08:53:05.750Z,11.10
2022-11-08T08:54:07.162Z,11.10
2022-11-08T08:55:08.734Z,11.10
2022-11-08T08:56:10.183Z,11.10
2022-11-08T08:57:11.618Z,11.00
2022-11-08T08:58:12.985Z,11.00
2022-11-08T09:01:59.746Z,10.90
2022-11-08T09:03:05.439Z,10.90
2022-11-08T09:04:13.702Z,10.80
2022-11-08T09:05:15.611Z,10.80
2022-11-08T09:06:17.021Z,10.80
2022-11-08T09:07:18.607Z,10.80
2022-11-08T09:08:20.025Z,10.80
2022-11-08T09:09:22.488Z,10.80
2022-11-08T09:10:24.397Z,10.90
2022-11-08T09:11:25.990Z,10.90
2022-11-08T09:12:28.244Z,11.00
2022-11-08T09:13:31.293Z,11.10
2022-11-08T09:14:32.694Z,11.10
2022-11-08T09:15:34.132Z,11.20
2022-11-08T09:16:35.665Z,11.20
2022-11-08T09:17:37.312Z,11.20
2022-11-08T09:18:39.090Z,11.20
2022-11-08T09:19:40.591Z,11.30
2022-11-08T09:20:43.804Z,11.30
2022-11-08T09:21:45.181Z,11.30
2022-11-08T09:22:47.072Z,11.40
2022-11-08T09:23:48.805Z,11.20
2022-11-08T09:24:50.209Z,11.20
2022-11-08T09:25:57.322Z,11.20
2022-11-08T09:26:58.828Z,11.20
2022-11-08T09:28:00.270Z,11.20
2022-11-08T09:29:02.245Z,11.20
2022-11-08T09:30:05.378Z,11.20
2022-11-08T09:31:09.731Z,11.20
2022-11-08T09:32:11.222Z,11.30
2022-11-08T09:33:12.612Z,11.30
2022-11-08T09:34:16.379Z,11.30
2022-11-08T09:35:21.086Z,11.40
2022-11-08T09:36:22.517Z,11.40
2022-11-08T09:37:24.999Z,11.40
2022-11-08T09:38:26.599Z,11.50
2022-11-08T09:39:28.022Z,11.50
2022-11-08T09:40:38.002Z,11.50
2022-11-08T09:41:51.425Z,11.60
2022-11-08T09:43:14.268Z,11.70
2022-11-08T09:44:26.537Z,11.90
2022-11-08T09:45:31.928Z,12.00
2022-11-08T09:46:58.748Z,12.00
2022-11-08T09:48:05.311Z,12.10
2022-11-08T09:49:17.705Z,12.20
2022-11-08T09:50:42.629Z,12.30
2022-11-08T09:51:44.168Z,12.40
2022-11-08T09:52:54.254Z,12.40
2022-11-08T09:53:59.912Z,12.50
2022-11-08T09:55:16.297Z,12.60
2022-11-08T09:56:38.104Z,12.80
2022-11-08T09:58:03.885Z,12.90
2022-11-08T09:59:32.331Z,13.00
2022-11-08T10:00:37.504Z,13.20
2022-11-08T10:01:40.036Z,13.30
2022-11-08T10:02:42.014Z,13.50
2022-11-08T10:03:49.840Z,13.70
2022-11-08T10:05:00.287Z,13.90
2022-11-08T10:06:01.686Z,14.10
2022-11-08T10:07:19.596Z,14.50
2022-11-08T10:08:33.138Z,14.70
2022-11-08T10:10:03.451Z,15.00
2022-11-08T10:11:19.428Z,15.20
2022-11-08T10:12:36.098Z,15.50
2022-11-08T10:14:08.500Z,15.70
2022-11-08T10:15:51.064Z,15.90
2022-11-08T10:17:26.981Z,16.10
2022-11-08T10:18:40.628Z,16.20
2022-11-08T10:20:03.655Z,16.30
2022-11-08T10:21:28.491Z,16.40
2022-11-08T10:22:48.957Z,16.50
2022-11-08T10:23:56.287Z,16.60
2022-11-08T10:25:01.759Z,16.70
2022-11-08T10:26:10.292Z,16.70
2022-11-08T10:27:33.313Z,16.80
2022-11-08T10:28:50.119Z,16.90
2022-11-08T10:29:58.136Z,17.00
2022-11-08T10:31:00.079Z,17.10
2022-11-08T10:32:21.499Z,17.10
2022-11-08T10:33:44.408Z,17.30
2022-11-08T10:34:54.505Z,17.30
2022-11-08T10:36:27.479Z,17.30
2022-11-08T10:37:31.724Z,17.30
2022-11-08T10:39:01.209Z,17.40
2022-11-08T10:40:16.918Z,17.50
2022-11-08T10:41:43.234Z,17.60
2022-11-08T10:42:58.364Z,17.70
2022-11-08T10:44:27.709Z,17.70
2022-11-08T10:45:29.891Z,17.80
2022-11-08T10:46:44.160Z,17.80
2022-11-08T10:47:46.888Z,17.90
2022-11-08T10:48:48.258Z,18.00
2022-11-08T10:49:49.726Z,18.10
2022-11-08T10:50:52.416Z,18.20
2022-11-08T10:52:01.884Z,18.30
2022-11-08T10:53:05.947Z,18.30
2022-11-08T10:54:08.462Z,18.50
2022-11-08T10:55:27.544Z,18.60
2022-11-08T10:56:30.502Z,18.70
2022-11-08T10:57:38.989Z,18.80
2022-11-08T10:58:43.774Z,18.90
2022-11-08T10:59:45.858Z,19.00
2022-11-08T11:01:01.151Z,19.00
2022-11-08T11:02:03.821Z,18.90
2022-11-08T11:03:11.055Z,19.00
2022-11-08T11:04:27.631Z,19.00
2022-11-08T11:05:35.366Z,19.00
2022-11-08T11:06:36.824Z,19.00
2022-11-08T11:07:38.347Z,19.00
2022-11-08T11:08:49.842Z,19.00
2022-11-08T11:09:51.248Z,19.10
2022-11-08T11:10:52.766Z,19.10
2022-11-08T11:12:06.503Z,19.10
2022-11-08T11:13:15.179Z,19.20
2022-11-08T11:14:23.245Z,19.20
2022-11-08T11:15:30.451Z,19.20
2022-11-08T11:16:32.709Z,19.30
2022-11-08T11:17:37.271Z,19.30
2022-11-08T11:18:50.551Z,19.30
2022-11-08T11:19:57.087Z,19.30
2022-11-08T11:21:10.457Z,19.30
2022-11-08T11:22:15.041Z,19.30
2022-11-08T11:23:16.454Z,19.30
2022-11-08T11:24:20.763Z,19.40
2022-11-08T11:25:24.119Z,19.30
2022-11-08T11:26:29.057Z,19.30
2022-11-08T11:27:36.367Z,19.40
2022-11-08T11:28:37.758Z,19.40
2022-11-08T11:29:39.568Z,19.40
2022-11-08T11:30:42.132Z,19.50
2022-11-08T11:31:47.662Z,19.50
2022-11-08T11:33:10.752Z,19.40
2022-11-08T11:34:42.607Z,19.30
2022-11-08T11:35:56.113Z,19.30
2022-11-08T11:37:07.429Z,19.30
2022-11-08T11:38:20.260Z,19.30
2022-11-08T11:39:37.527Z,19.40
2022-11-08T11:40:46.077Z,19.40
2022-11-08T11:42:43.824Z,19.40
2022-11-08T11:44:03.084Z,19.40
2022-11-08T11:45:36.686Z,19.40
2022-11-08T11:47:06.504Z,19.40
2022-11-08T11:48:19.503Z,19.40
2022-11-08T11:49:22.048Z,19.40
2022-11-08T11:50:30.686Z,19.40
2022-11-08T11:51:32.312Z,19.50
2022-11-08T11:52:34.622Z,19.40
2022-11-08T11:53:39.337Z,19.40
2022-11-08T11:54:44.245Z,19.40
2022-11-08T11:55:57.627Z,19.30
2022-11-08T11:57:04.687Z,19.30
2022-11-08T11:58:28.925Z,19.20
2022-11-08T11:59:56.463Z,19.20
2022-11-08T12:01:05.057Z,19.20
2022-11-08T12:02:43.268Z,19.10
2022-11-08T12:04:24.700Z,19.00
2022-11-08T12:05:37.915Z,18.90
2022-11-08T12:07:05.257Z,18.90
2022-11-08T12:08:16.235Z,19.00
2022-11-08T12:09:55.088Z,19.00
2022-11-08T12:11:40.196Z,19.00
2022-11-08T12:12:41.778Z,19.00
2022-11-08T12:13:59.164Z,19.00
2022-11-08T12:15:25.981Z,19.00
2022-11-08T12:16:37.495Z,19.00
2022-11-08T12:17:50.793Z,19.10
2022-11-08T12:19:11.043Z,19.10
2022-11-08T12:20:20.406Z,19.20
2022-11-08T12:21:54.963Z,19.30
2022-11-08T12:23:24.653Z,19.20
2022-11-08T12:24:55.455Z,19.30
2022-11-08T12:26:27.953Z,19.30
2022-11-08T12:27:32.115Z,19.40
2022-11-08T12:28:51.130Z,19.40
2022-11-08T12:30:16.611Z,19.50
2022-11-08T12:31:26.671Z,19.50
2022-11-08T12:33:03.724Z,19.60
2022-11-08T12:34:28.018Z,19.70
2022-11-08T12:35:58.820Z,19.70
2022-11-08T12:37:22.095Z,19.80
2022-11-08T12:38:53.161Z,19.80
2022-11-08T12:40:27.432Z,19.60
2022-11-08T12:41:49.408Z,19.60
2022-11-08T12:43:13.833Z,19.70
2022-11-08T12:44:38.300Z,19.80
2022-11-08T12:46:08.548Z,19.80
2022-11-08T12:47:09.893Z,19.80
2022-11-08T12:48:17.686Z,19.80
2022-11-08T12:49:34.247Z,19.80
2022-11-08T12:50:38.372Z,19.80
2022-11-08T12:52:05.330Z,19.80
2022-11-08T12:53:28.884Z,19.70
2022-11-08T12:54:37.888Z,19.70
2022-11-08T12:55:42.281Z,19.60
2022-11-08T12:56:49.539Z,19.70
2022-11-08T12:57:57.360Z,19.60
2022-11-08T12:58:59.783Z,19.50
2022-11-08T13:00:09.067Z,19.50
2022-11-08T13:01:13.832Z,19.60
2022-11-08T13:02:30.039Z,19.60
2022-11-08T13:03:44.077Z,19.60
2022-11-08T13:05:29.964Z,19.80
2022-11-08T13:06:46.979Z,19.90
2022-11-08T13:07:54.376Z,20.00
2022-11-08T13:08:58.838Z,20.10
2022-11-08T13:10:26.654Z,20.20
2022-11-08T13:11:46.325Z,20.20
2022-11-08T13:13:07.806Z,20.20
2022-11-08T13:14:17.672Z,20.30
2022-11-08T13:15:25.062Z,20.50
2022-11-08T13:16:29.316Z,20.60
2022-11-08T13:17:31.543Z,20.70
2022-11-08T13:18:35.056Z,20.70
2022-11-08T13:19:48.695Z,20.70
2022-11-08T13:20:50.428Z,20.70
2022-11-08T13:21:51.929Z,20.60
2022-11-08T13:23:00.857Z,20.60
2022-11-08T13:24:09.818Z,20.60
2022-11-08T13:25:11.550Z,20.60
2022-11-08T13:26:25.037Z,20.60
2022-11-08T13:27:59.005Z,20.70
2022-11-08T13:29:18.688Z,21.10
2022-11-08T13:30:20.058Z,21.20
2022-11-08T13:31:55.450Z,21.30
2022-11-08T13:33:09.964Z,21.50
2022-11-08T13:34:30.124Z,21.40
2022-11-08T13:35:46.371Z,21.20
2022-11-08T13:37:44.711Z,21.00
2022-11-08T13:39:22.330Z,20.80
2022-11-08T13:40:56.995Z,20.40
2022-11-08T13:42:16.421Z,20.00
2022-11-08T13:43:31.293Z,19.70
2022-11-08T13:45:00.742Z,19.50
2022-11-08T13:46:20.187Z,19.30
2022-11-08T13:47:33.555Z,19.10
2022-11-08T13:48:42.625Z,18.90
2022-11-08T13:49:44.541Z,18.90
2022-11-08T13:50:48.561Z,18.80
2022-11-08T13:51:51.524Z,18.60
2022-11-08T13:53:32.581Z,18.50
2022-11-08T13:54:47.837Z,18.30
2022-11-08T13:56:07.480Z,18.20
2022-11-08T13:57:17.764Z,18.00
2022-11-08T13:58:37.279Z,17.90
2022-11-08T13:59:39.177Z,17.90
2022-11-08T14:00:46.734Z,17.80
2022-11-08T14:01:48.433Z,17.70
2022-11-08T14:02:49.837Z,17.50
2022-11-08T14:03:51.205Z,17.50
2022-11-08T14:04:54.529Z,17.50
2022-11-08T14:05:56.873Z,17.40
2022-11-08T14:07:27.287Z,17.30
2022-11-08T14:08:38.045Z,17.20
2022-11-08T14:10:03.215Z,17.10
2022-11-08T14:11:10.384Z,17.00
2022-11-08T14:12:23.019Z,17.00
2022-11-08T14:13:35.078Z,17.00
2022-11-08T14:14:42.648Z,16.90
2022-11-08T14:15:51.799Z,16.80
2022-11-08T14:17:11.154Z,16.80
2022-11-08T14:18:24.205Z,16.80
2022-11-08T14:19:27.331Z,16.80
2022-11-08T14:20:46.320Z,16.70
2022-11-08T14:21:58.508Z,16.70
2022-11-08T14:23:19.221Z,16.60
2022-11-08T14:24:29.532Z,16.60
2022-11-08T14:25:35.478Z,16.60
2022-11-08T14:26:45.898Z,16.50
2022-11-08T14:27:47.381Z,16.50
2022-11-08T14:28:50.485Z,16.40
2022-11-08T14:30:00.281Z,16.40
2022-11-08T14:31:06.345Z,16.40
2022-11-08T14:32:17.646Z,16.30
2022-11-08T14:33:24.713Z,16.30
2022-11-08T14:34:32.309Z,16.30
2022-11-08T14:35:34.076Z,16.30
2022-11-08T14:36:35.579Z,16.30
2022-11-08T14:37:37.587Z,16.30